sensor_id;sensor_type;location;lat;lon;timestamp;pressure;altitude;pressure_sealevel;temperature;humidity
77877;BME280;67251;50.844;7.978;2024-02-26T00:01:26;97079.59;;;2.95;84.38
77877;BME280;67251;50.844;7.978;2024-02-26T00:03:51;97080.63;;;3.01;83.64
77877;BME280;67251;50.844;7.978;2024-02-26T00:06:17;97081.47;;;3.01;84.32
77877;BME280;67251;50.844;7.978;2024-02-26T00:08:43;97089.34;;;2.95;84.79
77877;BME280;67251;50.844;7.978;2024-02-26T00:11:09;97088.31;;;2.89;85.51
77877;BME280;67251;50.844;7.978;2024-02-26T00:13:34;97086.84;;;2.87;85.73
77877;BME280;67251;50.844;7.978;2024-02-26T00:15:59;97080.97;;;2.85;85.92
77877;BME280;67251;50.844;7.978;2024-02-26T00:18:25;97079.13;;;2.85;85.47
77877;BME280;67251;50.844;7.978;2024-02-26T00:20:50;97075.47;;;2.86;85.70
77877;BME280;67251;50.844;7.978;2024-02-26T00:23:15;97066.56;;;2.87;85.86
77877;BME280;67251;50.844;7.978;2024-02-26T00:25:41;97064.91;;;2.86;86.00
77877;BME280;67251;50.844;7.978;2024-02-26T00:28:08;97064.09;;;2.86;85.88
77877;BME280;67251;50.844;7.978;2024-02-26T00:30:34;97067.75;;;2.85;86.21
77877;BME280;67251;50.844;7.978;2024-02-26T00:32:59;97064.91;;;2.86;84.96
77877;BME280;67251;50.844;7.978;2024-02-26T00:35:24;97061.06;;;2.89;85.01
77877;BME280;67251;50.844;7.978;2024-02-26T00:37:50;97058.22;;;2.90;84.37
77877;BME280;67251;50.844;7.978;2024-02-26T00:40:23;97053.84;;;3.11;82.55
77877;BME280;67251;50.844;7.978;2024-02-26T00:42:49;97050.81;;;3.14;82.06
77877;BME280;67251;50.844;7.978;2024-02-26T00:45:15;97046.53;;;3.13;82.37
77877;BME280;67251;50.844;7.978;2024-02-26T00:47:41;97047.56;;;3.12;82.74
77877;BME280;67251;50.844;7.978;2024-02-26T00:50:07;97058.50;;;3.08;82.94
77877;BME280;67251;50.844;7.978;2024-02-26T00:52:33;97050.38;;;3.03;83.50
77877;BME280;67251;50.844;7.978;2024-02-26T00:54:59;97056.44;;;2.97;84.35
77877;BME280;67251;50.844;7.978;2024-02-26T00:57:24;97047.28;;;2.93;84.60
77877;BME280;67251;50.844;7.978;2024-02-26T00:59:50;97054.97;;;2.88;85.08
77877;BME280;67251;50.844;7.978;2024-02-26T01:02:15;97052.34;;;2.88;84.60
77877;BME280;67251;50.844;7.978;2024-02-26T01:04:41;97064.53;;;2.89;84.68
77877;BME280;67251;50.844;7.978;2024-02-26T01:07:06;97060.25;;;2.88;84.64
77877;BME280;67251;50.844;7.978;2024-02-26T01:09:31;97057.63;;;2.88;84.35
77877;BME280;67251;50.844;7.978;2024-02-26T01:11:57;97056.00;;;2.94;83.51
77877;BME280;67251;50.844;7.978;2024-02-26T01:14:22;97057.25;;;2.98;83.89
77877;BME280;67251;50.844;7.978;2024-02-26T01:16:48;97059.69;;;2.99;84.01
77877;BME280;67251;50.844;7.978;2024-02-26T01:19:13;97059.25;;;2.96;83.94
77877;BME280;67251;50.844;7.978;2024-02-26T01:21:39;97060.91;;;2.97;84.04
77877;BME280;67251;50.844;7.978;2024-02-26T01:24:04;97066.38;;;2.95;84.22
77877;BME280;67251;50.844;7.978;2024-02-26T01:26:30;97058.66;;;2.94;84.09
77877;BME280;67251;50.844;7.978;2024-02-26T01:28:56;97066.19;;;2.97;83.27
77877;BME280;67251;50.844;7.978;2024-02-26T01:31:21;97071.06;;;3.00;83.34
77877;BME280;67251;50.844;7.978;2024-02-26T01:33:46;97073.31;;;3.03;83.31
77877;BME280;67251;50.844;7.978;2024-02-26T01:36:12;97075.75;;;3.04;83.39
77877;BME280;67251;50.844;7.978;2024-02-26T01:38:37;97079.03;;;3.06;83.45
77877;BME280;67251;50.844;7.978;2024-02-26T01:43:50;97072.53;;;3.09;83.03
77877;BME280;67251;50.844;7.978;2024-02-26T01:46:16;97068.88;;;3.10;83.53
77877;BME280;67251;50.844;7.978;2024-02-26T01:48:42;97069.06;;;3.08;84.09
77877;BME280;67251;50.844;7.978;2024-02-26T01:51:08;97069.47;;;3.05;84.61
77877;BME280;67251;50.844;7.978;2024-02-26T01:53:35;97054.63;;;3.04;85.45
77877;BME280;67251;50.844;7.978;2024-02-26T01:56:01;97051.19;;;3.04;86.21
77877;BME280;67251;50.844;7.978;2024-02-26T01:58:28;97054.19;;;3.01;86.90
77877;BME280;67251;50.844;7.978;2024-02-26T02:00:55;97050.34;;;2.97;87.73
77877;BME280;67251;50.844;7.978;2024-02-26T02:03:21;97049.91;;;2.93;88.05
77877;BME280;67251;50.844;7.978;2024-02-26T02:05:47;97045.44;;;2.94;88.27
77877;BME280;67251;50.844;7.978;2024-02-26T02:08:13;97042.19;;;2.92;88.69
77877;BME280;67251;50.844;7.978;2024-02-26T02:10:41;97037.09;;;2.90;88.65
77877;BME280;67251;50.844;7.978;2024-02-26T02:13:06;97032.22;;;2.87;89.31
77877;BME280;67251;50.844;7.978;2024-02-26T02:15:32;97027.94;;;2.86;89.63
77877;BME280;67251;50.844;7.978;2024-02-26T02:17:58;97023.28;;;2.88;89.29
77877;BME280;67251;50.844;7.978;2024-02-26T02:20:26;97027.34;;;2.91;88.33
77877;BME280;67251;50.844;7.978;2024-02-26T02:22:56;97030.41;;;2.94;88.53
77877;BME280;67251;50.844;7.978;2024-02-26T02:25:21;97023.72;;;2.92;88.60
77877;BME280;67251;50.844;7.978;2024-02-26T02:27:47;97019.84;;;2.94;87.13
77877;BME280;67251;50.844;7.978;2024-02-26T02:30:12;97022.09;;;2.97;87.22
77877;BME280;67251;50.844;7.978;2024-02-26T02:32:40;97021.88;;;2.99;86.71
77877;BME280;67251;50.844;7.978;2024-02-26T02:35:07;97017.63;;;2.98;87.25
77877;BME280;67251;50.844;7.978;2024-02-26T02:37:32;97024.97;;;3.02;86.85
77877;BME280;67251;50.844;7.978;2024-02-26T02:39:57;97021.31;;;3.03;86.51
77877;BME280;67251;50.844;7.978;2024-02-26T02:52:28;97024.75;;;2.97;89.96
77877;BME280;67251;50.844;7.978;2024-02-26T02:54:54;97031.63;;;2.92;91.65
77877;BME280;67251;50.844;7.978;2024-02-26T02:57:19;97032.59;;;2.84;92.19
77877;BME280;67251;50.844;7.978;2024-02-26T02:59:46;97028.94;;;2.78;93.44
77877;BME280;67251;50.844;7.978;2024-02-26T03:02:11;97035.03;;;2.79;91.85
77877;BME280;67251;50.844;7.978;2024-02-26T03:04:37;97033.00;;;2.81;90.89
77877;BME280;67251;50.844;7.978;2024-02-26T03:07:02;97030.56;;;2.79;91.08
77877;BME280;67251;50.844;7.978;2024-02-26T03:09:27;97028.94;;;2.78;91.60
77877;BME280;67251;50.844;7.978;2024-02-26T03:11:52;97023.22;;;2.75;91.46
77877;BME280;67251;50.844;7.978;2024-02-26T03:14:18;97028.88;;;2.72;91.82
77877;BME280;67251;50.844;7.978;2024-02-26T03:16:43;97030.28;;;2.68;92.03
77877;BME280;67251;50.844;7.978;2024-02-26T03:19:08;97034.94;;;2.66;92.57
77877;BME280;67251;50.844;7.978;2024-02-26T03:21:34;97039.44;;;2.65;92.88
77877;BME280;67251;50.844;7.978;2024-02-26T03:23:59;97038.63;;;2.65;93.31
77877;BME280;67251;50.844;7.978;2024-02-26T03:26:24;97028.66;;;2.67;93.21
77877;BME280;67251;50.844;7.978;2024-02-26T03:28:50;97036.41;;;2.68;93.13
77877;BME280;67251;50.844;7.978;2024-02-26T03:31:15;97026.00;;;2.67;93.24
77877;BME280;67251;50.844;7.978;2024-02-26T03:33:41;97024.19;;;2.67;93.30
77877;BME280;67251;50.844;7.978;2024-02-26T03:36:06;97020.94;;;2.65;93.41
77877;BME280;67251;50.844;7.978;2024-02-26T03:38:32;97016.69;;;2.64;94.77
77877;BME280;67251;50.844;7.978;2024-02-26T03:40:58;97018.69;;;2.62;95.59
77877;BME280;67251;50.844;7.978;2024-02-26T03:43:23;97022.19;;;2.69;94.53
77877;BME280;67251;50.844;7.978;2024-02-26T03:45:49;97016.53;;;2.79;93.84
77877;BME280;67251;50.844;7.978;2024-02-26T03:48:14;97012.28;;;2.78;93.49
77877;BME280;67251;50.844;7.978;2024-02-26T03:50:39;97012.28;;;2.78;94.18
77877;BME280;67251;50.844;7.978;2024-02-26T03:53:05;97010.63;;;2.77;94.43
77877;BME280;67251;50.844;7.978;2024-02-26T03:55:31;97015.91;;;2.77;94.39
77877;BME280;67251;50.844;7.978;2024-02-26T03:57:57;97016.91;;;2.76;94.50
77877;BME280;67251;50.844;7.978;2024-02-26T04:00:22;97016.31;;;2.74;94.32
77877;BME280;67251;50.844;7.978;2024-02-26T04:02:47;97020.19;;;2.78;94.46
77877;BME280;67251;50.844;7.978;2024-02-26T04:05:13;97018.75;;;2.82;93.54
77877;BME280;67251;50.844;7.978;2024-02-26T04:07:42;97023.28;;;2.88;92.15
77877;BME280;67251;50.844;7.978;2024-02-26T04:10:11;97022.69;;;2.93;89.43
77877;BME280;67251;50.844;7.978;2024-02-26T04:12:40;97023.94;;;2.97;89.42
77877;BME280;67251;50.844;7.978;2024-02-26T04:15:07;97020.06;;;2.93;90.00
77877;BME280;67251;50.844;7.978;2024-02-26T04:17:33;97022.47;;;2.88;89.97
77877;BME280;67251;50.844;7.978;2024-02-26T04:19:58;97025.50;;;2.85;90.18
77877;BME280;67251;50.844;7.978;2024-02-26T04:22:23;97036.25;;;2.83;89.99
77877;BME280;67251;50.844;7.978;2024-02-26T04:24:49;97028.50;;;2.81;90.32
77877;BME280;67251;50.844;7.978;2024-02-26T04:27:14;97029.91;;;2.77;90.60
77877;BME280;67251;50.844;7.978;2024-02-26T04:29:39;97034.38;;;2.77;90.97
77877;BME280;67251;50.844;7.978;2024-02-26T04:32:05;97041.72;;;2.75;91.04
77877;BME280;67251;50.844;7.978;2024-02-26T04:34:30;97036.63;;;2.73;91.02
77877;BME280;67251;50.844;7.978;2024-02-26T04:36:56;97040.25;;;2.72;91.70
77877;BME280;67251;50.844;7.978;2024-02-26T04:39:21;97036.00;;;2.71;92.63
77877;BME280;67251;50.844;7.978;2024-02-26T04:41:46;97031.13;;;2.68;92.70
77877;BME280;67251;50.844;7.978;2024-02-26T04:44:12;97030.50;;;2.66;93.00
77877;BME280;67251;50.844;7.978;2024-02-26T04:46:37;97029.06;;;2.64;92.93
77877;BME280;67251;50.844;7.978;2024-02-26T04:49:02;97039.00;;;2.62;93.80
77877;BME280;67251;50.844;7.978;2024-02-26T04:51:28;97038.56;;;2.58;94.38
77877;BME280;67251;50.844;7.978;2024-02-26T04:53:53;97043.22;;;2.56;95.38
77877;BME280;67251;50.844;7.978;2024-02-26T04:56:21;97049.69;;;2.53;95.64
77877;BME280;67251;50.844;7.978;2024-02-26T04:58:46;97046.06;;;2.54;96.01
77877;BME280;67251;50.844;7.978;2024-02-26T05:01:12;97042.41;;;2.55;96.35
77877;BME280;67251;50.844;7.978;2024-02-26T05:03:37;97052.97;;;2.55;96.47
77877;BME280;67251;50.844;7.978;2024-02-26T05:06:03;97055.78;;;2.54;96.71
77877;BME280;67251;50.844;7.978;2024-02-26T05:08:28;97057.00;;;2.51;97.27
77877;BME280;67251;50.844;7.978;2024-02-26T05:10:56;97059.66;;;2.51;98.81
77877;BME280;67251;50.844;7.978;2024-02-26T05:13:21;97059.03;;;2.49;100.00
77877;BME280;67251;50.844;7.978;2024-02-26T05:15:46;97065.13;;;2.50;100.00
77877;BME280;67251;50.844;7.978;2024-02-26T05:18:14;97059.03;;;2.49;100.00
77877;BME280;67251;50.844;7.978;2024-02-26T05:20:40;97053.94;;;2.48;100.00
77877;BME280;67251;50.844;7.978;2024-02-26T05:23:05;97056.59;;;2.48;100.00
77877;BME280;67251;50.844;7.978;2024-02-26T05:25:31;97057.59;;;2.47;100.00
77877;BME280;67251;50.844;7.978;2024-02-26T05:27:56;97057.78;;;2.45;100.00
77877;BME280;67251;50.844;7.978;2024-02-26T05:30:21;97065.88;;;2.44;100.00
77877;BME280;67251;50.844;7.978;2024-02-26T05:32:47;97071.97;;;2.44;100.00
77877;BME280;67251;50.844;7.978;2024-02-26T05:35:12;97071.38;;;2.42;100.00
77877;BME280;67251;50.844;7.978;2024-02-26T05:37:37;97065.47;;;2.40;100.00
77877;BME280;67251;50.844;7.978;2024-02-26T05:40:04;97073.78;;;2.37;100.00
77877;BME280;67251;50.844;7.978;2024-02-26T05:42:30;97071.94;;;2.38;100.00
77877;BME280;67251;50.844;7.978;2024-02-26T05:44:55;97071.34;;;2.36;100.00
77877;BME280;67251;50.844;7.978;2024-02-26T05:47:20;97074.97;;;2.35;100.00
77877;BME280;67251;50.844;7.978;2024-02-26T05:49:46;97073.13;;;2.35;100.00
77877;BME280;67251;50.844;7.978;2024-02-26T05:52:11;97076.78;;;2.34;100.00
77877;BME280;67251;50.844;7.978;2024-02-26T05:54:36;97085.72;;;2.33;100.00
77877;BME280;67251;50.844;7.978;2024-02-26T05:57:02;97072.53;;;2.33;100.00
77877;BME280;67251;50.844;7.978;2024-02-26T05:59:27;97079.63;;;2.33;100.00
77877;BME280;67251;50.844;7.978;2024-02-26T06:01:53;97079.44;;;2.34;100.00
77877;BME280;67251;50.844;7.978;2024-02-26T06:04:18;97087.34;;;2.34;100.00
77877;BME280;67251;50.844;7.978;2024-02-26T06:06:44;97086.53;;;2.34;100.00
77877;BME280;67251;50.844;7.978;2024-02-26T06:09:11;97088.38;;;2.33;100.00
77877;BME280;67251;50.844;7.978;2024-02-26T06:11:36;97089.75;;;2.29;100.00
77877;BME280;67251;50.844;7.978;2024-02-26T06:14:02;97094.22;;;2.28;100.00
77877;BME280;67251;50.844;7.978;2024-02-26T06:16:27;97096.25;;;2.26;100.00
77877;BME280;67251;50.844;7.978;2024-02-26T06:18:53;97105.97;;;2.26;100.00
77877;BME280;67251;50.844;7.978;2024-02-26T06:21:18;97107.16;;;2.23;100.00
77877;BME280;67251;50.844;7.978;2024-02-26T06:23:44;97103.06;;;2.21;100.00
77877;BME280;67251;50.844;7.978;2024-02-26T06:26:09;97101.44;;;2.20;100.00
77877;BME280;67251;50.844;7.978;2024-02-26T06:28:35;97103.28;;;2.19;100.00
77877;BME280;67251;50.844;7.978;2024-02-26T06:31:01;97106.94;;;2.18;100.00
77877;BME280;67251;50.844;7.978;2024-02-26T06:33:27;97110.59;;;2.17;100.00
77877;BME280;67251;50.844;7.978;2024-02-26T06:35:52;97110.38;;;2.19;100.00
77877;BME280;67251;50.844;7.978;2024-02-26T06:38:17;97117.28;;;2.20;100.00
77877;BME280;67251;50.844;7.978;2024-02-26T06:40:44;97112.00;;;2.20;100.00
77877;BME280;67251;50.844;7.978;2024-02-26T06:43:09;97120.56;;;2.22;100.00
77877;BME280;67251;50.844;7.978;2024-02-26T06:45:35;97117.72;;;2.23;100.00
77877;BME280;67251;50.844;7.978;2024-02-26T06:48:01;97120.16;;;2.25;100.00
77877;BME280;67251;50.844;7.978;2024-02-26T06:50:26;97126.09;;;2.27;100.00
77877;BME280;67251;50.844;7.978;2024-02-26T06:52:52;97124.88;;;2.29;100.00
77877;BME280;67251;50.844;7.978;2024-02-26T06:55:17;97134.63;;;2.29;100.00
77877;BME280;67251;50.844;7.978;2024-02-26T06:57:42;97134.25;;;2.32;100.00
77877;BME280;67251;50.844;7.978;2024-02-26T07:00:08;97146.22;;;2.35;100.00
77877;BME280;67251;50.844;7.978;2024-02-26T07:02:34;97140.56;;;2.38;100.00
77877;BME280;67251;50.844;7.978;2024-02-26T07:04:59;97145.28;;;2.42;100.00
77877;BME280;67251;50.844;7.978;2024-02-26T07:07:25;97151.81;;;2.46;100.00
77877;BME280;67251;50.844;7.978;2024-02-26T07:09:50;97158.50;;;2.49;100.00
77877;BME280;67251;50.844;7.978;2024-02-26T07:12:16;97158.97;;;2.52;100.00
77877;BME280;67251;50.844;7.978;2024-02-26T07:14:41;97163.47;;;2.59;100.00
77877;BME280;67251;50.844;7.978;2024-02-26T07:17:07;97164.72;;;2.63;100.00
77877;BME280;67251;50.844;7.978;2024-02-26T07:19:33;97172.25;;;2.66;100.00
77877;BME280;67251;50.844;7.978;2024-02-26T07:21:59;97168.25;;;2.70;100.00
77877;BME280;67251;50.844;7.978;2024-02-26T07:24:27;97180.22;;;2.72;100.00
77877;BME280;67251;50.844;7.978;2024-02-26T07:26:52;97179.03;;;2.75;100.00
77877;BME280;67251;50.844;7.978;2024-02-26T07:29:19;97173.38;;;2.78;100.00
77877;BME280;67251;50.844;7.978;2024-02-26T07:31:45;97182.94;;;2.79;100.00
77877;BME280;67251;50.844;7.978;2024-02-26T07:34:10;97183.53;;;2.81;100.00
77877;BME280;67251;50.844;7.978;2024-02-26T07:36:36;97182.53;;;2.82;100.00
77877;BME280;67251;50.844;7.978;2024-02-26T07:39:01;97190.72;;;2.87;100.00
77877;BME280;67251;50.844;7.978;2024-02-26T07:41:26;97193.97;;;2.89;100.00
77877;BME280;67251;50.844;7.978;2024-02-26T07:43:52;97196.22;;;2.92;100.00
77877;BME280;67251;50.844;7.978;2024-02-26T07:46:17;97189.28;;;2.91;100.00
77877;BME280;67251;50.844;7.978;2024-02-26T07:48:43;97189.94;;;2.93;100.00
77877;BME280;67251;50.844;7.978;2024-02-26T07:51:09;97194.44;;;2.99;100.00
77877;BME280;67251;50.844;7.978;2024-02-26T07:53:34;97194.44;;;2.99;100.00
77877;BME280;67251;50.844;7.978;2024-02-26T07:55:59;97194.22;;;3.01;100.00
77877;BME280;67251;50.844;7.978;2024-02-26T07:58:25;97197.94;;;3.06;100.00
77877;BME280;67251;50.844;7.978;2024-02-26T08:00:50;97193.84;;;3.04;100.00
77877;BME280;67251;50.844;7.978;2024-02-26T08:03:15;97198.34;;;3.10;100.00
77877;BME280;67251;50.844;7.978;2024-02-26T08:05:41;97203.47;;;3.12;100.00
77877;BME280;67251;50.844;7.978;2024-02-26T08:08:08;97208.97;;;3.17;100.00
77877;BME280;67251;50.844;7.978;2024-02-26T08:10:34;97215.09;;;3.17;100.00
77877;BME280;67251;50.844;7.978;2024-02-26T08:12:59;97223.81;;;3.18;100.00
77877;BME280;67251;50.844;7.978;2024-02-26T08:15:31;97221.03;;;3.26;100.00
77877;BME280;67251;50.844;7.978;2024-02-26T08:17:57;97215.97;;;3.31;100.00
77877;BME280;67251;50.844;7.978;2024-02-26T08:20:23;97228.59;;;3.36;100.00
77877;BME280;67251;50.844;7.978;2024-02-26T08:22:48;97222.50;;;3.35;100.00
77877;BME280;67251;50.844;7.978;2024-02-26T08:25:14;97223.75;;;3.39;100.00
77877;BME280;67251;50.844;7.978;2024-02-26T08:27:41;97227.81;;;3.42;100.00
77877;BME280;67251;50.844;7.978;2024-02-26T08:30:07;97231.69;;;3.39;100.00
77877;BME280;67251;50.844;7.978;2024-02-26T08:32:32;97230.03;;;3.38;100.00
77877;BME280;67251;50.844;7.978;2024-02-26T08:34:58;97229.84;;;3.40;100.00
77877;BME280;67251;50.844;7.978;2024-02-26T08:37:23;97232.66;;;3.38;100.00
77877;BME280;67251;50.844;7.978;2024-02-26T08:39:49;97231.03;;;3.37;100.00
77877;BME280;67251;50.844;7.978;2024-02-26T08:42:14;97229.81;;;3.33;100.00
77877;BME280;67251;50.844;7.978;2024-02-26T08:44:39;97232.28;;;3.35;100.00
77877;BME280;67251;50.844;7.978;2024-02-26T08:47:05;97231.63;;;3.32;100.00
77877;BME280;67251;50.844;7.978;2024-02-26T08:49:30;97234.50;;;3.38;100.00
77877;BME280;67251;50.844;7.978;2024-02-26T08:51:56;97241.41;;;3.39;100.00
77877;BME280;67251;50.844;7.978;2024-02-26T08:54:21;97243.25;;;3.38;100.00
77877;BME280;67251;50.844;7.978;2024-02-26T08:56:47;97241.63;;;3.37;100.00
77877;BME280;67251;50.844;7.978;2024-02-26T08:59:12;97246.75;;;3.45;100.00
77877;BME280;67251;50.844;7.978;2024-02-26T09:01:37;97249.78;;;3.42;99.85
77877;BME280;67251;50.844;7.978;2024-02-26T09:04:03;97251.03;;;3.46;100.00
77877;BME280;67251;50.844;7.978;2024-02-26T09:06:28;97256.97;;;3.48;100.00
77877;BME280;67251;50.844;7.978;2024-02-26T09:08:54;97253.09;;;3.51;100.00
77877;BME280;67251;50.844;7.978;2024-02-26T09:11:20;97259.97;;;3.45;100.00
77877;BME280;67251;50.844;7.978;2024-02-26T09:13:45;97255.28;;;3.41;100.00
77877;BME280;67251;50.844;7.978;2024-02-26T09:16:11;97256.47;;;3.38;100.00
77877;BME280;67251;50.844;7.978;2024-02-26T09:18:37;97257.47;;;3.37;100.00
77877;BME280;67251;50.844;7.978;2024-02-26T09:21:05;97262.78;;;3.37;100.00
77877;BME280;67251;50.844;7.978;2024-02-26T09:23:31;97261.38;;;3.41;100.00
77877;BME280;67251;50.844;7.978;2024-02-26T09:25:56;97258.34;;;3.44;100.00
77877;BME280;67251;50.844;7.978;2024-02-26T09:28:22;97263.63;;;3.44;100.00
77877;BME280;67251;50.844;7.978;2024-02-26T09:30:47;97257.34;;;3.45;100.00
77877;BME280;67251;50.844;7.978;2024-02-26T09:33:15;97262.47;;;3.53;100.00
77877;BME280;67251;50.844;7.978;2024-02-26T09:35:41;97264.53;;;3.58;100.00
77877;BME280;67251;50.844;7.978;2024-02-26T09:38:06;97269.47;;;3.68;100.00
77877;BME280;67251;50.844;7.978;2024-02-26T09:40:32;97269.06;;;3.71;100.00
77877;BME280;67251;50.844;7.978;2024-02-26T09:43:00;97266.47;;;3.84;100.00
77877;BME280;67251;50.844;7.978;2024-02-26T09:45:27;97269.75;;;3.93;100.00
77877;BME280;67251;50.844;7.978;2024-02-26T09:47:55;97275.28;;;3.91;100.00
77877;BME280;67251;50.844;7.978;2024-02-26T09:50:21;97275.88;;;3.93;100.00
77877;BME280;67251;50.844;7.978;2024-02-26T09:52:49;97284.03;;;3.98;100.00
77877;BME280;67251;50.844;7.978;2024-02-26T09:55:15;97279.19;;;4.08;100.00
77877;BME280;67251;50.844;7.978;2024-02-26T09:57:45;97287.16;;;4.15;100.00
77877;BME280;67251;50.844;7.978;2024-02-26T10:00:17;97290.19;;;4.05;100.00
77877;BME280;67251;50.844;7.978;2024-02-26T10:02:45;97281.28;;;4.20;100.00
77877;BME280;67251;50.844;7.978;2024-02-26T10:05:12;97286.41;;;4.34;100.00
77877;BME280;67251;50.844;7.978;2024-02-26T10:07:47;97300.28;;;4.50;100.00
77877;BME280;67251;50.844;7.978;2024-02-26T10:10:17;97300.31;;;4.56;100.00
77877;BME280;67251;50.844;7.978;2024-02-26T10:12:43;97304.38;;;4.59;100.00
77877;BME280;67251;50.844;7.978;2024-02-26T10:15:09;97300.94;;;4.72;100.00
77877;BME280;67251;50.844;7.978;2024-02-26T10:17:34;97296.44;;;4.66;99.07
77877;BME280;67251;50.844;7.978;2024-02-26T10:20:17;97300.53;;;4.61;98.94
77877;BME280;67251;50.844;7.978;2024-02-26T10:22:43;97308.47;;;4.68;100.00
77877;BME280;67251;50.844;7.978;2024-02-26T10:25:09;97301.34;;;4.88;100.00
77877;BME280;67251;50.844;7.978;2024-02-26T10:27:34;97297.47;;;4.98;97.83
77877;BME280;67251;50.844;7.978;2024-02-26T10:30:19;97298.31;;;4.85;97.61
77877;BME280;67251;50.844;7.978;2024-02-26T10:32:46;97305.47;;;5.04;97.31
77877;BME280;67251;50.844;7.978;2024-02-26T10:35:16;97315.03;;;5.05;96.07
77877;BME280;67251;50.844;7.978;2024-02-26T10:37:43;97305.03;;;5.34;96.08
77877;BME280;67251;50.844;7.978;2024-02-26T10:40:13;97319.50;;;5.45;94.90
77877;BME280;67251;50.844;7.978;2024-02-26T10:42:39;97318.69;;;5.37;95.23
77877;BME280;67251;50.844;7.978;2024-02-26T10:45:06;97321.34;;;5.31;95.22
77877;BME280;67251;50.844;7.978;2024-02-26T10:47:31;97329.09;;;5.39;96.41
77877;BME280;67251;50.844;7.978;2024-02-26T10:49:59;97336.03;;;5.20;95.82
77877;BME280;67251;50.844;7.978;2024-02-26T10:52:27;97337.88;;;5.26;95.86
77877;BME280;67251;50.844;7.978;2024-02-26T10:54:56;97345.41;;;5.29;95.12
77877;BME280;67251;50.844;7.978;2024-02-26T10:57:24;97338.47;;;5.35;95.89
77877;BME280;67251;50.844;7.978;2024-02-26T10:59:51;97331.75;;;5.39;94.00
77877;BME280;67251;50.844;7.978;2024-02-26T11:02:18;97335.41;;;5.45;95.36
77877;BME280;67251;50.844;7.978;2024-02-26T11:04:46;97329.69;;;5.48;93.56
77877;BME280;67251;50.844;7.978;2024-02-26T11:07:11;97334.56;;;5.71;95.40
77877;BME280;67251;50.844;7.978;2024-02-26T11:09:38;97337.41;;;5.89;92.53
77877;BME280;67251;50.844;7.978;2024-02-26T11:12:10;97333.88;;;6.08;92.72
77877;BME280;67251;50.844;7.978;2024-02-26T11:14:39;97336.78;;;6.00;91.70
77877;BME280;67251;50.844;7.978;2024-02-26T11:17:07;97338.94;;;6.23;91.77
77877;BME280;67251;50.844;7.978;2024-02-26T11:19:35;97334.47;;;6.17;91.08
77877;BME280;67251;50.844;7.978;2024-02-26T11:22:01;97338.53;;;6.26;90.66
77877;BME280;67251;50.844;7.978;2024-02-26T11:24:27;97345.72;;;6.12;90.00
77877;BME280;67251;50.844;7.978;2024-02-26T11:26:56;97338.97;;;6.10;88.08
77877;BME280;67251;50.844;7.978;2024-02-26T11:29:38;97344.22;;;6.30;90.66
77877;BME280;67251;50.844;7.978;2024-02-26T11:32:05;97341.22;;;6.58;89.57
77877;BME280;67251;50.844;7.978;2024-02-26T11:34:31;97351.22;;;6.62;87.21
77877;BME280;67251;50.844;7.978;2024-02-26T11:36:56;97349.47;;;6.81;86.86
77877;BME280;67251;50.844;7.978;2024-02-26T11:39:23;97346.78;;;6.88;86.58
77877;BME280;67251;50.844;7.978;2024-02-26T11:41:50;97349.38;;;7.01;86.23
77877;BME280;67251;50.844;7.978;2024-02-26T11:44:28;97349.88;;;7.16;85.49
77877;BME280;67251;50.844;7.978;2024-02-26T11:46:56;97350.53;;;7.05;85.91
77877;BME280;67251;50.844;7.978;2024-02-26T11:51:54;97344.84;;;6.25;88.88
77877;BME280;67251;50.844;7.978;2024-02-26T11:57:30;97362.91;;;6.03;92.32
77877;BME280;67251;50.844;7.978;2024-02-26T12:00:13;97357.81;;;5.82;92.76
77877;BME280;67251;50.844;7.978;2024-02-26T12:05:23;97356.56;;;5.91;92.37
77877;BME280;67251;50.844;7.978;2024-02-26T12:08:00;97353.94;;;5.98;91.95
77877;BME280;67251;50.844;7.978;2024-02-26T12:10:31;97349.66;;;5.83;93.19
77877;BME280;67251;50.844;7.978;2024-02-26T12:15:38;97349.63;;;5.97;90.97
77877;BME280;67251;50.844;7.978;2024-02-26T12:18:06;97340.00;;;6.09;90.05
77877;BME280;67251;50.844;7.978;2024-02-26T12:20:33;97350.84;;;6.07;88.93
77877;BME280;67251;50.844;7.978;2024-02-26T12:23:01;97344.69;;;6.07;90.30
77877;BME280;67251;50.844;7.978;2024-02-26T12:25:28;97353.91;;;6.04;88.32
77877;BME280;67251;50.844;7.978;2024-02-26T12:27:54;97357.09;;;6.33;88.77
77877;BME280;67251;50.844;7.978;2024-02-26T12:30:21;97355.88;;;6.35;88.08
77877;BME280;67251;50.844;7.978;2024-02-26T12:32:48;97358.88;;;6.39;89.83
77877;BME280;67251;50.844;7.978;2024-02-26T12:35:14;97365.59;;;6.48;89.68
77877;BME280;67251;50.844;7.978;2024-02-26T12:37:40;97371.41;;;6.25;87.86
77877;BME280;67251;50.844;7.978;2024-02-26T12:40:08;97373.69;;;6.22;89.40
77877;BME280;67251;50.844;7.978;2024-02-26T12:42:36;97377.13;;;6.35;91.27
77877;BME280;67251;50.844;7.978;2024-02-26T12:45:12;97378.91;;;6.42;90.86
77877;BME280;67251;50.844;7.978;2024-02-26T12:47:42;97386.91;;;6.42;90.66
77877;BME280;67251;50.844;7.978;2024-02-26T12:50:09;97391.19;;;6.43;89.82
77877;BME280;67251;50.844;7.978;2024-02-26T12:52:37;97396.44;;;6.49;90.87
77877;BME280;67251;50.844;7.978;2024-02-26T12:55:05;97389.84;;;6.65;90.79
77877;BME280;67251;50.844;7.978;2024-02-26T12:57:36;97394.38;;;6.64;90.58
77877;BME280;67251;50.844;7.978;2024-02-26T13:00:03;97393.16;;;6.60;87.52
77877;BME280;67251;50.844;7.978;2024-02-26T13:02:30;97399.63;;;6.71;88.92
77877;BME280;67251;50.844;7.978;2024-02-26T13:04:57;97396.34;;;6.76;87.61
77877;BME280;67251;50.844;7.978;2024-02-26T13:07:22;97403.72;;;6.74;88.40
77877;BME280;67251;50.844;7.978;2024-02-26T13:09:48;97408.75;;;6.88;88.88
77877;BME280;67251;50.844;7.978;2024-02-26T13:12:13;97406.75;;;6.84;86.73
77877;BME280;67251;50.844;7.978;2024-02-26T13:14:39;97414.78;;;6.71;86.94
77877;BME280;67251;50.844;7.978;2024-02-26T13:17:05;97412.66;;;6.86;87.39
77877;BME280;67251;50.844;7.978;2024-02-26T13:19:30;97418.31;;;6.96;87.47
77877;BME280;67251;50.844;7.978;2024-02-26T13:21:56;97411.84;;;7.17;86.79
77877;BME280;67251;50.844;7.978;2024-02-26T13:24:21;97413.00;;;7.28;85.09
77877;BME280;67251;50.844;7.978;2024-02-26T13:26:54;97413.97;;;7.40;84.70